Terminal Aerodrome Forecast
Issued by NWS

Current Version | Previous Version | Graphics & Text | Print | Product List | Glossary On
Versions: 1 2 3 4 5 6 7 8 9 10 11 12 13 14 15 16 17 18 19 20 21 22 23 24 25 26 27 28 29 30 31 32 33 34 35 36
321
FTUS41 KPBZ 252339
TAFMGW
TAF
KMGW 252339Z 2600/2624 20004KT P6SM SCT050
     FM260700 00000KT 3SM BR BKN100
     FM261000 00000KT 1SM BR SCT003
     FM261400 00000KT P6SM SCT050=

USA.gov is the U.S. government's official web portal to all federal, state and local government web resources and services.